createdAt,value
2022-08-16T00:00:20.519Z,20.73
2022-08-16T00:03:28.141Z,20.65
2022-08-16T00:06:36.505Z,20.62
2022-08-16T00:09:46.514Z,20.58
2022-08-16T00:12:51.728Z,20.55
2022-08-16T00:15:57.031Z,20.57
2022-08-16T00:19:04.728Z,20.61
2022-08-16T00:22:16.446Z,20.65
2022-08-16T00:25:21.737Z,20.78
2022-08-16T00:28:48.602Z,20.83
2022-08-16T00:32:06.032Z,20.93
2022-08-16T00:35:15.880Z,20.96
2022-08-16T00:38:40.003Z,21.04
2022-08-16T00:41:47.162Z,20.98
2022-08-16T00:44:53.501Z,20.91
2022-08-16T00:48:01.959Z,20.83
2022-08-16T00:51:29.598Z,20.79
2022-08-16T00:54:35.546Z,20.82
2022-08-16T00:57:59.194Z,20.80
2022-08-16T01:01:12.393Z,20.78
2022-08-16T01:04:28.984Z,20.78
2022-08-16T01:07:51.165Z,20.82
2022-08-16T01:11:00.017Z,20.89
2022-08-16T01:14:06.018Z,20.95
2022-08-16T01:17:11.351Z,20.95
2022-08-16T01:20:24.615Z,20.95
2022-08-16T01:23:58.066Z,20.96
2022-08-16T01:27:03.872Z,21.02
2022-08-16T01:30:19.385Z,21.06
2022-08-16T01:33:33.351Z,21.07
2022-08-16T01:36:40.937Z,21.07
2022-08-16T01:39:46.917Z,21.06
2022-08-16T01:42:53.797Z,21.05
2022-08-16T01:49:19.102Z,21.05
2022-08-16T01:52:29.438Z,21.03
2022-08-16T01:55:35.934Z,21.02
2022-08-16T01:58:48.042Z,20.99
2022-08-16T02:02:01.110Z,21.05
2022-08-16T02:05:07.534Z,21.06
2022-08-16T02:08:33.823Z,21.01
2022-08-16T02:11:47.653Z,20.99
2022-08-16T02:14:54.523Z,20.95
2022-08-16T02:18:01.216Z,20.93
2022-08-16T02:21:07.159Z,20.86
2022-08-16T02:24:31.493Z,20.82
2022-08-16T02:27:38.566Z,20.79
2022-08-16T02:30:46.706Z,20.76
2022-08-16T02:33:59.578Z,20.76
2022-08-16T02:37:12.791Z,20.78
2022-08-16T02:40:18.425Z,20.75
2022-08-16T02:43:26.610Z,20.66
2022-08-16T02:46:33.705Z,20.64
2022-08-16T02:50:40.360Z,20.60
2022-08-16T02:53:08.143Z,20.58
2022-08-16T02:56:14.545Z,20.60
2022-08-16T02:59:20.878Z,20.66
2022-08-16T03:02:31.689Z,20.71
2022-08-16T03:05:38.199Z,20.72
2022-08-16T03:08:52.296Z,20.69
2022-08-16T03:11:58.578Z,20.73
2022-08-16T03:15:06.937Z,20.66
2022-08-16T03:18:34.217Z,20.66
2022-08-16T03:21:38.984Z,20.68
2022-08-16T03:24:45.740Z,20.78
2022-08-16T03:27:51.215Z,20.77
2022-08-16T03:31:00.319Z,20.86
2022-08-16T03:34:06.478Z,20.96
2022-08-16T03:37:12.030Z,21.12
2022-08-16T03:40:31.627Z,21.18
2022-08-16T03:43:51.270Z,21.17
2022-08-16T03:46:59.598Z,21.10
2022-08-16T03:50:25.952Z,21.09
2022-08-16T03:53:37.846Z,20.94
2022-08-16T03:56:57.220Z,20.93
2022-08-16T04:00:12.391Z,20.98
2022-08-16T04:03:38.277Z,21.08
2022-08-16T04:06:46.101Z,21.14
2022-08-16T04:09:52.182Z,21.30
2022-08-16T04:13:04.143Z,21.47
2022-08-16T04:16:26.134Z,21.65
2022-08-16T04:19:35.472Z,21.93
2022-08-16T04:22:43.756Z,22.28
2022-08-16T04:26:01.997Z,22.58
2022-08-16T04:29:17.187Z,22.68
2022-08-16T04:32:30.319Z,22.66
2022-08-16T04:35:36.777Z,22.83
2022-08-16T04:38:44.490Z,22.86
2022-08-16T04:41:58.544Z,22.84
2022-08-16T04:45:04.407Z,22.81
2022-08-16T04:48:12.299Z,22.78
2022-08-16T04:51:27.933Z,22.71
2022-08-16T04:54:43.120Z,22.67
2022-08-16T04:57:53.500Z,22.64
2022-08-16T05:00:59.731Z,22.58
2022-08-16T05:04:06.210Z,22.30
2022-08-16T05:07:25.449Z,22.12
2022-08-16T05:10:30.733Z,22.02
2022-08-16T05:13:40.523Z,21.76
2022-08-16T05:16:47.552Z,21.58
2022-08-16T05:19:58.475Z,21.48
2022-08-16T05:23:21.175Z,21.43
2022-08-16T05:26:28.067Z,21.41
2022-08-16T05:30:00.707Z,21.45
2022-08-16T05:32:59.653Z,21.39
2022-08-16T05:36:08.706Z,21.45
2022-08-16T05:39:22.272Z,21.47
2022-08-16T05:42:35.787Z,21.58
2022-08-16T05:45:42.905Z,21.71
2022-08-16T05:48:54.948Z,21.83
2022-08-16T05:52:11.708Z,21.97
2022-08-16T05:55:19.657Z,22.06
2022-08-16T05:58:32.763Z,22.11
2022-08-16T06:01:39.368Z,22.18
2022-08-16T06:04:45.745Z,22.29
2022-08-16T06:07:58.515Z,22.33
2022-08-16T06:11:11.304Z,22.25
2022-08-16T06:14:18.858Z,22.31
2022-08-16T06:17:24.181Z,22.57
2022-08-16T06:20:51.722Z,22.85
2022-08-16T06:24:01.398Z,23.06
2022-08-16T06:27:06.897Z,23.22
2022-08-16T06:30:13.657Z,23.33
2022-08-16T06:33:25.237Z,23.44
2022-08-16T06:36:32.290Z,23.47
2022-08-16T06:39:49.311Z,23.49
2022-08-16T06:42:57.588Z,23.57
2022-08-16T06:46:03.834Z,23.57
2022-08-16T06:49:10.832Z,23.60
2022-08-16T06:53:00.519Z,23.55
2022-08-16T06:55:43.376Z,23.58
2022-08-16T06:58:49.166Z,23.73
2022-08-16T07:01:58.128Z,23.80
2022-08-16T07:05:04.456Z,23.84
2022-08-16T07:08:21.831Z,23.90
2022-08-16T07:11:47.373Z,24.02
2022-08-16T07:14:56.368Z,24.13
2022-08-16T07:18:06.298Z,24.40
2022-08-16T07:21:13.745Z,24.58
2022-08-16T07:24:29.498Z,24.69
2022-08-16T07:27:42.779Z,24.74
2022-08-16T07:30:48.473Z,24.91
2022-08-16T07:33:55.355Z,24.87
2022-08-16T07:37:00.873Z,24.89
2022-08-16T07:40:11.360Z,24.89
2022-08-16T07:43:17.074Z,24.90
2022-08-16T07:46:37.446Z,24.92
2022-08-16T07:49:52.881Z,25.01
2022-08-16T07:53:00.228Z,25.09
2022-08-16T07:56:07.954Z,25.19
2022-08-16T07:59:13.380Z,25.34
2022-08-16T08:02:21.030Z,25.44
2022-08-16T08:05:35.769Z,25.77
2022-08-16T08:08:49.695Z,26.23
2022-08-16T08:12:05.280Z,26.69
2022-08-16T08:15:11.782Z,26.95
2022-08-16T08:18:30.068Z,27.16
2022-08-16T08:21:59.746Z,27.06
2022-08-16T08:25:03.714Z,26.99
2022-08-16T08:28:10.950Z,26.96
2022-08-16T08:31:17.280Z,26.95
2022-08-16T08:34:23.451Z,27.00
2022-08-16T08:37:28.750Z,27.17
2022-08-16T08:40:54.734Z,27.31
2022-08-16T08:44:00.447Z,27.50
2022-08-16T08:47:10.885Z,27.48
2022-08-16T08:50:31.764Z,27.56
2022-08-16T08:53:37.963Z,27.70
2022-08-16T08:56:45.251Z,27.74
2022-08-16T08:59:51.537Z,27.81
2022-08-16T09:02:58.483Z,28.05
2022-08-16T09:06:04.438Z,28.27
2022-08-16T09:09:17.023Z,28.38
2022-08-16T09:12:31.241Z,28.41
2022-08-16T09:15:42.010Z,28.40
2022-08-16T09:18:51.822Z,28.43
2022-08-16T09:22:04.462Z,28.41
2022-08-16T09:25:11.202Z,28.38
2022-08-16T09:29:13.477Z,28.40
2022-08-16T09:31:44.943Z,28.49
2022-08-16T09:34:51.061Z,28.52
2022-08-16T09:38:00.998Z,28.57
2022-08-16T09:41:14.751Z,28.60
2022-08-16T09:45:09.534Z,28.65
2022-08-16T09:48:06.944Z,28.76
2022-08-16T09:51:12.487Z,28.82
2022-08-16T09:54:21.054Z,28.89
2022-08-16T09:57:26.279Z,28.98
2022-08-16T10:00:45.151Z,29.14
2022-08-16T10:04:01.579Z,29.22
2022-08-16T10:07:14.984Z,29.33
2022-08-16T10:10:30.739Z,29.42
2022-08-16T10:13:35.866Z,29.46
2022-08-16T10:16:41.336Z,29.53
2022-08-16T10:19:50.291Z,29.55
2022-08-16T10:23:05.478Z,29.60
2022-08-16T10:27:19.577Z,29.67
2022-08-16T10:30:00.668Z,29.70
2022-08-16T10:33:06.042Z,29.68
2022-08-16T10:36:38.161Z,29.66
2022-08-16T10:39:41.652Z,29.72
2022-08-16T10:42:49.740Z,29.76
2022-08-16T10:46:00.125Z,29.84
2022-08-16T10:49:22.535Z,29.93
2022-08-16T10:52:28.214Z,30.06
2022-08-16T10:55:43.687Z,30.17
2022-08-16T10:58:50.416Z,30.22
2022-08-16T11:05:23.215Z,30.56
2022-08-16T11:08:36.444Z,30.72
2022-08-16T11:15:12.132Z,30.82
2022-08-16T11:19:03.644Z,30.97
2022-08-16T11:25:12.315Z,31.21
2022-08-16T11:29:11.874Z,31.42
2022-08-16T11:31:45.885Z,31.38
2022-08-16T11:35:16.038Z,31.28
2022-08-16T11:38:51.018Z,31.39
2022-08-16T11:41:51.574Z,31.25
2022-08-16T11:44:58.840Z,31.14
2022-08-16T11:48:04.567Z,30.95
2022-08-16T11:51:10.213Z,31.00
2022-08-16T11:54:21.732Z,31.00
2022-08-16T11:57:28.395Z,30.98
2022-08-16T12:00:50.617Z,31.02
2022-08-16T12:03:58.004Z,31.04
2022-08-16T12:07:05.410Z,31.01
2022-08-16T12:10:11.214Z,31.06
2022-08-16T12:13:16.795Z,31.22
2022-08-16T12:16:22.126Z,31.27
2022-08-16T12:19:33.981Z,31.29
2022-08-16T12:22:41.306Z,31.23
2022-08-16T12:25:51.136Z,31.11
2022-08-16T12:28:57.557Z,31.00
2022-08-16T12:32:35.803Z,30.99
2022-08-16T12:35:31.619Z,30.89
2022-08-16T12:38:47.991Z,30.87
2022-08-16T12:41:57.651Z,30.74
2022-08-16T12:45:03.445Z,30.70
2022-08-16T12:48:35.038Z,30.68
2022-08-16T12:51:58.452Z,30.67
2022-08-16T12:55:07.066Z,30.68
2022-08-16T12:58:47.388Z,30.74
2022-08-16T13:01:41.821Z,30.89
2022-08-16T13:04:49.218Z,31.00
2022-08-16T13:07:58.421Z,31.03
2022-08-16T13:11:07.612Z,30.89
2022-08-16T13:14:30.856Z,30.87
2022-08-16T13:17:37.801Z,30.83
2022-08-16T13:20:48.983Z,30.87
2022-08-16T13:23:55.398Z,30.93
2022-08-16T13:27:04.157Z,30.95
2022-08-16T13:30:11.333Z,30.91
2022-08-16T13:33:37.212Z,30.86
2022-08-16T13:36:49.365Z,30.85
2022-08-16T13:39:55.642Z,30.77
2022-08-16T13:43:03.045Z,30.72
2022-08-16T13:46:08.878Z,30.71
2022-08-16T13:49:14.630Z,30.71
2022-08-16T13:52:19.961Z,30.80
2022-08-16T13:55:25.941Z,30.85
2022-08-16T13:58:50.668Z,30.72
2022-08-16T14:02:02.651Z,30.69
2022-08-16T14:05:08.548Z,30.69
2022-08-16T14:08:16.474Z,30.66
2022-08-16T14:11:23.322Z,30.64
2022-08-16T14:14:37.987Z,30.68
2022-08-16T14:18:20.071Z,30.69
2022-08-16T14:21:09.489Z,30.72
2022-08-16T14:24:30.299Z,30.83
2022-08-16T14:27:36.210Z,30.87
2022-08-16T14:30:44.749Z,30.87
2022-08-16T14:33:51.456Z,30.85
2022-08-16T14:36:57.015Z,30.82
2022-08-16T14:40:03.382Z,30.74
2022-08-16T14:43:08.991Z,30.62
2022-08-16T14:46:22.027Z,30.52
2022-08-16T14:49:27.719Z,30.37
2022-08-16T14:56:02.760Z,30.23
2022-08-16T14:59:11.178Z,30.13
2022-08-16T15:02:27.596Z,30.05
2022-08-16T15:05:41.553Z,29.96
2022-08-16T15:08:47.417Z,29.89
2022-08-16T15:11:53.116Z,29.75
2022-08-16T15:14:59.408Z,29.68
2022-08-16T15:18:04.910Z,29.54
2022-08-16T15:21:11.374Z,29.47
2022-08-16T15:24:22.424Z,29.35
2022-08-16T15:27:33.665Z,29.24
2022-08-16T15:30:58.411Z,29.13
2022-08-16T15:34:06.663Z,28.99
2022-08-16T15:37:18.694Z,28.92
2022-08-16T15:40:32.589Z,28.82
2022-08-16T15:43:41.367Z,28.78
2022-08-16T15:46:58.404Z,28.75
2022-08-16T15:50:05.873Z,28.72
2022-08-16T15:53:12.589Z,28.68
2022-08-16T15:56:17.967Z,28.67
2022-08-16T15:59:23.856Z,28.66
2022-08-16T16:02:35.690Z,28.66
2022-08-16T16:05:41.487Z,28.62
2022-08-16T16:08:48.157Z,28.63
2022-08-16T16:11:55.964Z,28.62
2022-08-16T16:15:01.580Z,28.64
2022-08-16T16:18:09.935Z,28.62
2022-08-16T16:21:20.429Z,28.62
2022-08-16T16:24:30.713Z,28.62
2022-08-16T16:27:38.233Z,28.63
2022-08-16T16:30:45.475Z,28.65
2022-08-16T16:33:52.548Z,28.64
2022-08-16T16:36:59.785Z,28.65
2022-08-16T16:40:06.505Z,28.63
2022-08-16T16:43:13.846Z,28.59
2022-08-16T16:46:41.433Z,28.53
2022-08-16T16:49:50.829Z,28.47
2022-08-16T16:52:58.469Z,28.46
2022-08-16T16:56:04.066Z,28.43
2022-08-16T16:59:14.671Z,28.44
2022-08-16T17:02:41.160Z,28.45
2022-08-16T17:05:51.017Z,28.43
2022-08-16T17:09:06.899Z,28.44
2022-08-16T17:12:25.299Z,28.45
2022-08-16T17:15:43.584Z,28.42
2022-08-16T17:22:34.327Z,28.34
2022-08-16T17:25:39.714Z,28.30
2022-08-16T17:28:57.830Z,28.25
2022-08-16T17:32:33.712Z,28.19
2022-08-16T17:35:33.934Z,28.15
2022-08-16T17:38:47.207Z,28.13
2022-08-16T17:39:28.618Z,28.35
2022-08-16T17:41:52.529Z,28.11
2022-08-16T17:44:58.136Z,28.08
2022-08-16T17:48:03.765Z,28.05
2022-08-16T17:51:09.137Z,28.03
2022-08-16T17:54:30.468Z,28.02
2022-08-16T17:57:36.536Z,27.96
2022-08-16T18:00:44.482Z,27.96
2022-08-16T18:04:07.374Z,27.91
2022-08-16T18:07:14.945Z,27.88
2022-08-16T18:10:33.083Z,27.80
2022-08-16T18:13:43.194Z,27.73
2022-08-16T18:16:49.364Z,27.62
2022-08-16T18:19:54.660Z,27.52
2022-08-16T18:22:59.233Z,27.43
2022-08-16T18:26:08.234Z,27.38
2022-08-16T18:29:14.037Z,27.36
2022-08-16T18:32:24.324Z,27.32
2022-08-16T18:35:31.114Z,27.29
2022-08-16T18:38:38.228Z,27.12
2022-08-16T18:41:47.607Z,27.06
2022-08-16T18:44:53.082Z,26.98
2022-08-16T18:47:58.814Z,26.87
2022-08-16T18:51:09.278Z,26.77
2022-08-16T18:54:18.236Z,26.69
2022-08-16T18:57:23.893Z,26.60
2022-08-16T19:00:29.311Z,26.59
2022-08-16T19:03:53.976Z,26.57
2022-08-16T19:07:02.790Z,26.56
2022-08-16T19:10:09.105Z,26.52
2022-08-16T19:13:14.700Z,26.51
2022-08-16T19:16:21.814Z,26.47
2022-08-16T19:23:10.193Z,26.46
2022-08-16T19:26:24.510Z,26.44
2022-08-16T19:29:31.678Z,26.35
2022-08-16T19:32:46.652Z,26.31
2022-08-16T19:35:52.192Z,26.27
2022-08-16T19:38:58.053Z,26.20
2022-08-16T19:42:10.799Z,26.19
2022-08-16T19:45:18.372Z,26.10
2022-08-16T19:48:24.002Z,26.03
2022-08-16T19:51:29.745Z,26.02
2022-08-16T19:54:39.620Z,25.97
2022-08-16T19:57:50.607Z,25.83
2022-08-16T20:00:57.237Z,25.60
2022-08-16T20:04:03.937Z,25.44
2022-08-16T20:07:09.575Z,25.34
2022-08-16T20:10:18.047Z,25.27
2022-08-16T20:13:24.503Z,25.20
2022-08-16T20:16:29.973Z,25.14
2022-08-16T20:19:40.535Z,25.12
2022-08-16T20:22:53.959Z,25.13
2022-08-16T20:26:00.639Z,25.19
2022-08-16T20:29:06.926Z,25.26
2022-08-16T20:32:12.614Z,25.32
2022-08-16T20:35:18.746Z,25.41
2022-08-16T20:38:28.938Z,25.33
2022-08-16T20:41:38.098Z,25.30
2022-08-16T20:44:50.338Z,25.28
2022-08-16T20:47:55.902Z,25.24
2022-08-16T20:51:10.872Z,25.19
2022-08-16T20:54:15.998Z,25.24
2022-08-16T20:57:21.651Z,25.19
2022-08-16T21:00:29.109Z,25.08
2022-08-16T21:03:34.805Z,25.04
2022-08-16T21:06:41.128Z,25.09
2022-08-16T21:09:52.664Z,25.09
2022-08-16T21:12:58.199Z,25.15
2022-08-16T21:16:10.326Z,25.11
2022-08-16T21:19:16.258Z,25.17
2022-08-16T21:22:21.477Z,25.20
2022-08-16T21:25:26.619Z,25.25
2022-08-16T21:28:41.134Z,25.18
2022-08-16T21:31:48.527Z,25.18
2022-08-16T21:34:54.594Z,25.19
2022-08-16T21:38:28.355Z,25.21
2022-08-16T21:41:32.679Z,25.25
2022-08-16T21:44:38.638Z,25.20
2022-08-16T21:47:44.871Z,25.17
2022-08-16T21:50:50.419Z,25.07
2022-08-16T21:53:56.933Z,24.98
2022-08-16T21:57:02.305Z,24.97
2022-08-16T22:00:08.034Z,24.93
2022-08-16T22:03:13.826Z,24.89
2022-08-16T22:06:20.030Z,24.89
2022-08-16T22:09:26.588Z,24.85
2022-08-16T22:12:35.667Z,24.77
2022-08-16T22:15:40.862Z,24.75
2022-08-16T22:18:52.456Z,24.78
2022-08-16T22:21:58.390Z,24.80
2022-08-16T22:25:04.069Z,24.77
2022-08-16T22:28:09.364Z,24.77
2022-08-16T22:31:14.870Z,24.82
2022-08-16T22:34:20.339Z,24.84
2022-08-16T22:37:33.303Z,24.92
2022-08-16T22:40:39.374Z,24.93
2022-08-16T22:43:48.290Z,24.84
2022-08-16T22:46:53.941Z,24.66
2022-08-16T22:50:06.104Z,24.53
2022-08-16T22:53:11.264Z,24.37
2022-08-16T22:56:17.727Z,24.32
2022-08-16T22:59:25.020Z,24.32
2022-08-16T23:02:30.971Z,24.29
2022-08-16T23:05:36.220Z,24.27
2022-08-16T23:08:42.049Z,24.30
2022-08-16T23:11:57.660Z,24.31
2022-08-16T23:15:04.743Z,24.32
2022-08-16T23:18:10.761Z,24.21
2022-08-16T23:21:16.222Z,24.09
2022-08-16T23:24:21.838Z,23.83
2022-08-16T23:27:27.222Z,23.58
2022-08-16T23:30:34.381Z,23.37
2022-08-16T23:33:44.916Z,23.32
2022-08-16T23:36:50.577Z,23.35
2022-08-16T23:39:55.935Z,23.43
2022-08-16T23:43:01.465Z,23.51
2022-08-16T23:46:08.144Z,23.55
2022-08-16T23:49:58.371Z,23.53
2022-08-16T23:52:55.694Z,23.51
2022-08-16T23:56:01.107Z,23.59
2022-08-16T23:59:06.352Z,23.66
